createdAt,value
2022-08-14T00:00:45.589Z,90.00
2022-08-14T00:03:21.437Z,90.20
2022-08-14T00:06:00.497Z,90.50
2022-08-14T00:08:45.019Z,90.00
2022-08-14T00:11:15.873Z,89.60
2022-08-14T00:13:51.757Z,89.70
2022-08-14T00:16:41.627Z,89.80
2022-08-14T00:19:19.630Z,90.00
2022-08-14T00:21:49.916Z,89.30
2022-08-14T00:24:28.223Z,88.30
2022-08-14T00:27:02.003Z,87.40
2022-08-14T00:29:39.909Z,87.40
2022-08-14T00:32:53.057Z,88.50
2022-08-14T00:35:01.517Z,90.00
2022-08-14T00:37:30.624Z,90.10
2022-08-14T00:40:01.745Z,90.00
2022-08-14T00:42:55.627Z,89.80
2022-08-14T00:45:25.577Z,89.40
2022-08-14T00:48:00.156Z,89.50
2022-08-14T00:50:31.321Z,89.00
2022-08-14T00:53:02.266Z,88.60
2022-08-14T00:55:32.175Z,88.50
2022-08-14T00:58:32.496Z,88.20
2022-08-14T01:01:03.492Z,87.00
2022-08-14T01:03:36.328Z,86.10
2022-08-14T01:06:07.121Z,86.20
2022-08-14T01:08:57.837Z,85.50
2022-08-14T01:11:35.353Z,85.10
2022-08-14T01:14:26.015Z,85.00
2022-08-14T01:16:55.916Z,85.00
2022-08-14T01:19:43.340Z,85.10
2022-08-14T01:22:18.653Z,84.90
2022-08-14T01:24:48.858Z,84.70
2022-08-14T01:27:22.392Z,84.80
2022-08-14T01:30:01.221Z,85.40
2022-08-14T01:32:50.978Z,85.80
2022-08-14T01:36:03.881Z,86.40
2022-08-14T01:38:15.313Z,86.40
2022-08-14T01:40:48.966Z,86.20
2022-08-14T01:43:22.192Z,85.10
2022-08-14T01:46:06.064Z,85.00
2022-08-14T01:48:37.092Z,84.80
2022-08-14T01:51:18.742Z,85.00
2022-08-14T01:53:55.508Z,85.50
2022-08-14T01:56:36.982Z,84.60
2022-08-14T01:59:10.255Z,84.40
2022-08-14T02:01:58.053Z,84.30
2022-08-14T02:04:54.970Z,84.70
2022-08-14T02:07:44.654Z,84.30
2022-08-14T02:10:12.877Z,84.20
2022-08-14T02:12:54.168Z,84.20
2022-08-14T02:15:26.691Z,84.90
2022-08-14T02:17:55.755Z,85.20
2022-08-14T02:20:25.296Z,83.90
2022-08-14T02:22:55.063Z,84.90
2022-08-14T02:25:29.965Z,85.20
2022-08-14T02:28:23.309Z,84.80
2022-08-14T02:30:52.635Z,86.50
2022-08-14T02:33:23.448Z,87.40
2022-08-14T02:35:53.313Z,87.20
2022-08-14T02:38:35.160Z,86.90
2022-08-14T02:41:09.024Z,86.70
2022-08-14T02:43:46.444Z,87.20
2022-08-14T02:46:20.193Z,86.10
2022-08-14T02:49:03.452Z,86.40
2022-08-14T02:51:36.624Z,85.40
2022-08-14T02:54:07.441Z,85.90
2022-08-14T02:57:15.505Z,86.60
2022-08-14T02:59:33.928Z,86.20
2022-08-14T03:02:04.470Z,86.20
2022-08-14T03:04:34.483Z,86.40
2022-08-14T03:07:07.734Z,86.70
2022-08-14T03:10:25.072Z,86.70
2022-08-14T03:12:32.246Z,85.30
2022-08-14T03:15:05.344Z,85.30
2022-08-14T03:17:56.149Z,87.20
2022-08-14T03:20:23.814Z,85.30
2022-08-14T03:22:53.731Z,85.90
2022-08-14T03:25:23.327Z,85.50
2022-08-14T03:27:58.678Z,85.30
2022-08-14T03:30:39.554Z,85.00
2022-08-14T03:33:12.052Z,85.50
2022-08-14T03:35:59.915Z,86.80
2022-08-14T03:39:13.230Z,87.80
2022-08-14T03:41:23.218Z,88.80
2022-08-14T03:43:57.806Z,89.80
2022-08-14T03:46:54.536Z,90.50
2022-08-14T03:49:28.398Z,91.50
2022-08-14T03:52:01.335Z,91.90
2022-08-14T03:54:30.765Z,92.50
2022-08-14T03:57:02.420Z,93.10
2022-08-14T03:59:35.423Z,93.40
2022-08-14T04:02:09.610Z,93.50
2022-08-14T04:04:54.117Z,94.00
2022-08-14T04:07:23.909Z,94.60
2022-08-14T04:09:53.658Z,94.40
2022-08-14T04:12:26.422Z,94.70
2022-08-14T04:14:57.539Z,95.10
2022-08-14T04:17:29.628Z,95.00
2022-08-14T04:20:06.961Z,95.00
2022-08-14T04:22:39.234Z,95.20
2022-08-14T04:25:10.786Z,95.20
2022-08-14T04:28:01.848Z,95.10
2022-08-14T04:30:33.100Z,95.40
2022-08-14T04:33:07.660Z,95.30
2022-08-14T04:35:56.125Z,95.20
2022-08-14T04:38:43.317Z,95.60
2022-08-14T04:41:33.434Z,96.00
2022-08-14T04:44:02.720Z,95.80
2022-08-14T04:46:56.280Z,95.60
2022-08-14T04:49:24.686Z,95.70
2022-08-14T04:51:55.849Z,95.40
2022-08-14T04:54:27.077Z,95.60
2022-08-14T04:56:57.184Z,95.40
2022-08-14T04:59:26.814Z,95.20
2022-08-14T05:01:58.518Z,95.10
2022-08-14T05:04:27.505Z,94.90
2022-08-14T05:06:56.696Z,94.80
2022-08-14T05:09:28.969Z,94.70
2022-08-14T05:13:01.052Z,94.30
2022-08-14T05:14:55.174Z,94.00
2022-08-14T05:17:34.772Z,93.80
2022-08-14T05:21:04.474Z,93.90
2022-08-14T05:23:03.871Z,93.80
2022-08-14T05:25:34.178Z,93.40
2022-08-14T05:28:14.175Z,92.80
2022-08-14T05:30:46.822Z,92.40
2022-08-14T05:33:19.958Z,92.20
2022-08-14T05:35:51.138Z,92.00
2022-08-14T05:38:31.693Z,91.90
2022-08-14T05:41:01.234Z,91.00
2022-08-14T05:43:40.610Z,91.20
2022-08-14T05:46:12.387Z,90.80
2022-08-14T05:48:48.681Z,91.00
2022-08-14T05:51:18.256Z,90.90
2022-08-14T05:53:56.940Z,90.40
2022-08-14T05:56:31.353Z,90.40
2022-08-14T05:59:01.398Z,90.50
2022-08-14T06:01:31.314Z,89.40
2022-08-14T06:04:04.442Z,88.60
2022-08-14T06:06:38.345Z,86.50
2022-08-14T06:09:09.791Z,86.20
2022-08-14T06:11:40.661Z,86.80
2022-08-14T06:14:20.956Z,85.40
2022-08-14T06:16:51.962Z,84.80
2022-08-14T06:19:23.798Z,84.00
2022-08-14T06:21:58.902Z,83.70
2022-08-14T06:24:30.610Z,83.20
2022-08-14T06:27:04.699Z,82.80
2022-08-14T06:29:35.369Z,83.70
2022-08-14T06:32:37.916Z,83.30
2022-08-14T06:35:04.693Z,82.80
2022-08-14T06:37:44.149Z,82.70
2022-08-14T06:40:26.762Z,82.50
2022-08-14T06:43:00.361Z,83.20
2022-08-14T06:45:32.586Z,83.70
2022-08-14T06:48:03.287Z,82.00
2022-08-14T06:50:36.828Z,82.20
2022-08-14T06:53:05.697Z,83.20
2022-08-14T06:55:37.156Z,82.90
2022-08-14T06:58:28.686Z,82.40
2022-08-14T07:01:23.053Z,82.10
2022-08-14T07:04:23.037Z,82.20
2022-08-14T07:06:54.810Z,81.80
2022-08-14T07:09:28.161Z,82.60
2022-08-14T07:12:09.947Z,81.10
2022-08-14T07:15:01.362Z,81.70
2022-08-14T07:17:31.934Z,80.10
2022-08-14T07:20:03.438Z,81.50
2022-08-14T07:22:49.931Z,79.50
2022-08-14T07:25:22.915Z,78.70
2022-08-14T07:28:01.725Z,78.10
2022-08-14T07:30:34.245Z,77.80
2022-08-14T07:33:04.823Z,76.80
2022-08-14T07:35:42.825Z,75.00
2022-08-14T07:38:25.262Z,75.80
2022-08-14T07:40:54.518Z,75.40
2022-08-14T07:43:25.191Z,73.40
2022-08-14T07:45:55.281Z,72.60
2022-08-14T07:48:25.294Z,72.90
2022-08-14T07:51:03.027Z,73.50
2022-08-14T07:53:41.295Z,75.40
2022-08-14T07:56:44.295Z,73.80
2022-08-14T07:59:01.150Z,73.30
2022-08-14T08:01:31.090Z,74.00
2022-08-14T08:04:01.470Z,73.10
2022-08-14T08:06:32.611Z,71.30
2022-08-14T08:09:04.882Z,71.10
2022-08-14T08:11:37.686Z,71.20
2022-08-14T08:14:16.354Z,71.60
2022-08-14T08:16:51.223Z,71.60
2022-08-14T08:19:20.527Z,72.20
2022-08-14T08:21:50.291Z,71.90
2022-08-14T08:24:23.465Z,72.10
2022-08-14T08:26:52.495Z,73.20
2022-08-14T08:29:28.696Z,71.40
2022-08-14T08:32:01.771Z,70.70
2022-08-14T08:34:46.630Z,71.30
2022-08-14T08:37:16.503Z,70.10
2022-08-14T08:40:01.409Z,70.10
2022-08-14T08:42:38.710Z,70.50
2022-08-14T08:45:17.586Z,70.80
2022-08-14T08:47:48.677Z,69.20
2022-08-14T08:50:31.726Z,69.50
2022-08-14T08:53:02.610Z,71.00
2022-08-14T08:55:39.025Z,71.10
2022-08-14T08:58:16.007Z,70.70
2022-08-14T09:00:49.854Z,69.10
2022-08-14T09:03:27.437Z,67.80
2022-08-14T09:05:59.238Z,67.80
2022-08-14T09:08:32.602Z,67.90
2022-08-14T09:11:18.477Z,67.70
2022-08-14T09:13:51.786Z,66.40
2022-08-14T09:16:25.919Z,65.60
2022-08-14T09:18:56.078Z,65.00
2022-08-14T09:21:30.890Z,63.80
2022-08-14T09:24:27.951Z,64.50
2022-08-14T09:26:52.055Z,64.00
2022-08-14T09:29:23.559Z,64.10
2022-08-14T09:31:57.742Z,64.40
2022-08-14T09:34:58.359Z,64.70
2022-08-14T09:37:42.310Z,63.90
2022-08-14T09:40:22.633Z,62.10
2022-08-14T09:43:05.114Z,61.60
2022-08-14T09:45:52.489Z,61.60
2022-08-14T09:48:27.564Z,63.40
2022-08-14T09:54:12.685Z,61.20
2022-08-14T09:56:31.764Z,60.10
2022-08-14T09:59:15.449Z,58.70
2022-08-14T10:01:52.897Z,59.60
2022-08-14T10:04:33.603Z,62.00
2022-08-14T10:07:05.597Z,58.70
2022-08-14T10:09:35.376Z,58.70
2022-08-14T10:12:16.441Z,58.10
2022-08-14T10:14:53.291Z,58.00
2022-08-14T10:17:33.108Z,57.90
2022-08-14T10:20:40.414Z,58.70
2022-08-14T10:23:16.314Z,56.60
2022-08-14T10:25:50.449Z,56.90
2022-08-14T10:28:51.550Z,61.30
2022-08-14T10:31:25.524Z,58.50
2022-08-14T10:34:05.154Z,56.20
2022-08-14T10:36:45.694Z,57.10
2022-08-14T10:39:19.776Z,55.90
2022-08-14T10:41:54.132Z,54.90
2022-08-14T10:44:29.536Z,54.50
2022-08-14T10:47:39.478Z,54.70
2022-08-14T10:50:00.245Z,54.80
2022-08-14T10:52:33.918Z,53.90
2022-08-14T10:55:14.243Z,53.40
2022-08-14T10:57:51.825Z,54.10
2022-08-14T11:00:30.166Z,54.60
2022-08-14T11:03:09.948Z,52.40
2022-08-14T11:05:42.938Z,51.50
2022-08-14T11:08:13.116Z,51.50
2022-08-14T11:10:46.627Z,52.20
2022-08-14T11:13:24.010Z,51.10
2022-08-14T11:15:53.818Z,50.20
2022-08-14T11:18:32.396Z,49.40
2022-08-14T11:21:08.329Z,49.60
2022-08-14T11:23:41.320Z,49.40
2022-08-14T11:26:14.284Z,49.20
2022-08-14T11:28:49.839Z,48.90
2022-08-14T11:31:22.186Z,48.10
2022-08-14T11:33:58.359Z,48.80
2022-08-14T11:37:02.773Z,46.70
2022-08-14T11:39:34.441Z,46.80
2022-08-14T11:42:07.723Z,47.00
2022-08-14T11:45:00.148Z,46.40
2022-08-14T11:47:35.478Z,46.30
2022-08-14T11:50:25.078Z,48.00
2022-08-14T11:53:05.026Z,46.10
2022-08-14T11:55:38.449Z,45.90
2022-08-14T11:58:23.668Z,45.10
2022-08-14T12:00:57.365Z,45.40
2022-08-14T12:03:51.178Z,44.90
2022-08-14T12:06:28.563Z,44.00
2022-08-14T12:09:08.902Z,44.20
2022-08-14T12:11:46.774Z,44.30
2022-08-14T12:14:30.510Z,44.50
2022-08-14T12:17:12.648Z,43.70
2022-08-14T12:19:53.965Z,42.90
2022-08-14T12:22:42.163Z,42.80
2022-08-14T12:25:14.251Z,43.30
2022-08-14T12:27:46.697Z,43.50
2022-08-14T12:30:37.745Z,41.70
2022-08-14T12:33:24.087Z,40.90
2022-08-14T12:35:57.553Z,41.00
2022-08-14T12:38:36.686Z,41.90
2022-08-14T12:41:11.122Z,41.50
2022-08-14T12:43:51.815Z,41.40
2022-08-14T12:46:29.329Z,40.60
2022-08-14T12:49:02.533Z,40.80
2022-08-14T12:51:32.639Z,40.70
2022-08-14T12:54:26.088Z,40.00
2022-08-14T12:57:06.629Z,39.00
2022-08-14T12:59:42.740Z,39.70
2022-08-14T13:02:26.021Z,39.70
2022-08-14T13:04:57.031Z,40.50
2022-08-14T13:07:32.800Z,39.90
2022-08-14T13:10:45.799Z,40.70
2022-08-14T13:13:13.278Z,39.90
2022-08-14T13:15:46.665Z,37.80
2022-08-14T13:18:18.242Z,37.90
2022-08-14T13:20:49.512Z,38.20
2022-08-14T13:23:30.487Z,38.30
2022-08-14T13:26:03.006Z,39.00
2022-08-14T13:28:34.091Z,38.60
2022-08-14T13:31:11.089Z,40.30
2022-08-14T13:33:41.452Z,37.90
2022-08-14T13:36:23.954Z,37.80
2022-08-14T13:39:01.836Z,37.20
2022-08-14T13:41:36.202Z,39.30
2022-08-14T13:44:13.678Z,38.80
2022-08-14T13:46:44.571Z,37.80
2022-08-14T13:49:18.342Z,38.40
2022-08-14T13:51:50.724Z,37.70
2022-08-14T13:54:22.795Z,38.30
2022-08-14T13:56:53.923Z,38.20
2022-08-14T13:59:38.042Z,38.40
2022-08-14T14:02:09.599Z,38.70
2022-08-14T14:04:42.214Z,38.00
2022-08-14T14:07:14.255Z,38.10
2022-08-14T14:09:52.765Z,37.90
2022-08-14T14:12:38.354Z,38.10
2022-08-14T14:15:12.555Z,37.60
2022-08-14T14:17:44.945Z,38.30
2022-08-14T14:20:34.492Z,37.20
2022-08-14T14:23:11.991Z,37.50
2022-08-14T14:25:51.156Z,37.30
2022-08-14T14:28:31.337Z,36.50
2022-08-14T14:31:06.611Z,37.10
2022-08-14T14:33:47.614Z,36.80
2022-08-14T14:36:21.618Z,36.90
2022-08-14T14:38:55.136Z,36.50
2022-08-14T14:41:26.604Z,36.60
2022-08-14T14:44:13.418Z,36.60
2022-08-14T14:46:51.131Z,37.10
2022-08-14T14:49:31.929Z,36.30
2022-08-14T14:52:23.418Z,36.40
2022-08-14T14:54:58.854Z,37.50
2022-08-14T14:57:34.947Z,37.20
2022-08-14T15:00:12.720Z,37.70
2022-08-14T15:02:43.581Z,37.70
2022-08-14T15:05:14.276Z,38.80
2022-08-14T15:07:43.674Z,38.00
2022-08-14T15:10:28.119Z,38.00
2022-08-14T15:13:04.459Z,38.30
2022-08-14T15:15:37.189Z,38.10
2022-08-14T15:18:14.945Z,38.40
2022-08-14T15:20:58.279Z,38.80
2022-08-14T15:23:43.496Z,38.20
2022-08-14T15:26:23.966Z,37.70
2022-08-14T15:29:02.180Z,38.80
2022-08-14T15:31:36.457Z,38.70
2022-08-14T15:34:40.788Z,39.20
2022-08-14T15:37:03.432Z,39.70
2022-08-14T15:39:35.761Z,38.60
2022-08-14T15:42:14.307Z,38.80
2022-08-14T15:44:56.761Z,38.70
2022-08-14T15:47:29.516Z,39.10
2022-08-14T15:50:00.619Z,38.80
2022-08-14T15:52:35.061Z,38.60
2022-08-14T15:55:06.822Z,38.50
2022-08-14T15:57:37.136Z,38.60
2022-08-14T16:00:44.452Z,38.70
2022-08-14T16:03:18.331Z,39.30
2022-08-14T16:05:57.134Z,39.10
2022-08-14T16:08:28.808Z,38.70
2022-08-14T16:11:01.209Z,38.30
2022-08-14T16:13:39.344Z,39.70
2022-08-14T16:16:48.946Z,39.40
2022-08-14T16:19:10.206Z,45.20
2022-08-14T16:22:02.486Z,48.10
2022-08-14T16:24:59.875Z,49.10
2022-08-14T16:27:37.891Z,49.00
2022-08-14T16:30:25.099Z,49.90
2022-08-14T16:32:57.676Z,50.50
2022-08-14T16:35:42.593Z,51.10
2022-08-14T16:38:46.356Z,50.80
2022-08-14T16:41:22.847Z,50.70
2022-08-14T16:43:59.210Z,50.50
2022-08-14T16:46:32.519Z,50.80
2022-08-14T16:49:02.683Z,51.20
2022-08-14T16:51:34.952Z,51.90
2022-08-14T16:54:20.757Z,52.50
2022-08-14T16:57:18.553Z,53.30
2022-08-14T16:59:57.230Z,53.80
2022-08-14T17:02:39.139Z,54.20
2022-08-14T17:05:22.659Z,53.90
2022-08-14T17:08:32.562Z,54.60
2022-08-14T17:11:10.718Z,54.10
2022-08-14T17:13:57.854Z,54.10
2022-08-14T17:16:35.954Z,54.10
2022-08-14T17:19:17.487Z,54.10
2022-08-14T17:21:50.349Z,54.20
2022-08-14T17:24:57.979Z,54.80
2022-08-14T17:27:18.180Z,55.20
2022-08-14T17:29:56.414Z,55.80
2022-08-14T17:32:56.603Z,56.10
2022-08-14T17:35:57.419Z,56.80
2022-08-14T17:38:33.669Z,57.30
2022-08-14T17:41:23.651Z,57.50
2022-08-14T17:46:38.080Z,58.80
2022-08-14T17:49:18.078Z,59.60
2022-08-14T17:52:07.762Z,60.40
2022-08-14T17:54:59.059Z,60.80
2022-08-14T17:57:35.397Z,62.00
2022-08-14T18:00:12.818Z,61.40
2022-08-14T18:02:51.269Z,63.10
2022-08-14T18:06:08.486Z,63.00
2022-08-14T18:08:33.757Z,64.70
2022-08-14T18:11:02.328Z,65.30
2022-08-14T18:13:51.259Z,65.60
2022-08-14T18:16:22.490Z,64.80
2022-08-14T18:18:53.106Z,65.00
2022-08-14T18:21:23.984Z,65.30
2022-08-14T18:24:28.120Z,65.80
2022-08-14T18:27:08.795Z,66.70
2022-08-14T18:29:55.235Z,67.90
2022-08-14T18:32:54.874Z,69.20
2022-08-14T18:35:46.188Z,69.90
2022-08-14T18:38:55.101Z,69.30
2022-08-14T18:41:36.140Z,69.10
2022-08-14T18:44:12.426Z,70.40
2022-08-14T18:47:17.946Z,70.00
2022-08-14T18:50:26.237Z,68.50
2022-08-14T18:53:07.366Z,69.10
2022-08-14T18:55:53.845Z,69.60
2022-08-14T18:58:31.514Z,70.40
2022-08-14T19:01:06.336Z,70.60
2022-08-14T19:03:57.385Z,70.20
2022-08-14T19:06:56.155Z,70.20
2022-08-14T19:09:53.625Z,71.20
2022-08-14T19:13:05.140Z,71.50
2022-08-14T19:15:44.062Z,72.40
2022-08-14T19:18:29.162Z,72.60
2022-08-14T19:20:59.875Z,73.00
2022-08-14T19:23:42.824Z,74.30
2022-08-14T19:26:36.633Z,75.10
2022-08-14T19:29:36.052Z,75.00
2022-08-14T19:32:28.435Z,75.10
2022-08-14T19:35:02.365Z,76.40
2022-08-14T19:37:52.101Z,77.30
2022-08-14T19:40:34.250Z,76.70
2022-08-14T19:43:06.799Z,77.60
2022-08-14T19:45:39.627Z,77.10
2022-08-14T19:48:16.110Z,78.10
2022-08-14T19:50:47.103Z,78.30
2022-08-14T19:53:17.173Z,76.80
2022-08-14T19:56:01.598Z,77.30
2022-08-14T19:58:54.495Z,78.00
2022-08-14T20:01:36.612Z,79.00
2022-08-14T20:04:46.038Z,79.50
2022-08-14T20:07:04.365Z,78.60
2022-08-14T20:11:08.490Z,78.10
2022-08-14T20:12:36.780Z,78.90
2022-08-14T20:15:46.823Z,78.90
2022-08-14T20:18:32.932Z,79.90
2022-08-14T20:21:06.307Z,80.10
2022-08-14T20:23:38.283Z,81.80
2022-08-14T20:26:30.535Z,82.40
2022-08-14T20:29:04.667Z,83.40
2022-08-14T20:31:38.544Z,81.70
2022-08-14T20:34:24.202Z,83.30
2022-08-14T20:37:09.838Z,83.30
2022-08-14T20:39:53.604Z,83.30
2022-08-14T20:42:43.609Z,82.80
2022-08-14T20:45:24.885Z,83.00
2022-08-14T20:48:01.417Z,82.60
2022-08-14T20:50:32.070Z,82.10
2022-08-14T20:53:06.000Z,81.70
2022-08-14T20:55:41.540Z,83.60
2022-08-14T20:58:41.839Z,83.90
2022-08-14T21:01:36.016Z,84.20
2022-08-14T21:04:21.167Z,84.20
2022-08-14T21:07:24.551Z,83.60
2022-08-14T21:10:06.420Z,83.80
2022-08-14T21:12:35.817Z,82.80
2022-08-14T21:15:10.191Z,84.80
2022-08-14T21:17:43.372Z,85.10
2022-08-14T21:20:25.937Z,83.70
2022-08-14T21:23:00.551Z,85.90
2022-08-14T21:25:31.496Z,86.20
2022-08-14T21:28:04.908Z,87.40
2022-08-14T21:30:46.597Z,87.40
2022-08-14T21:33:24.791Z,89.70
2022-08-14T21:35:55.981Z,88.20
2022-08-14T21:38:33.695Z,86.30
2022-08-14T21:41:43.131Z,87.20
2022-08-14T21:44:17.372Z,88.20
2022-08-14T21:46:53.321Z,86.80
2022-08-14T21:49:33.737Z,86.60
2022-08-14T21:52:51.079Z,88.40
2022-08-14T21:55:09.320Z,89.40
2022-08-14T21:58:46.214Z,88.90
2022-08-14T22:00:30.570Z,90.20
2022-08-14T22:03:09.074Z,88.40
2022-08-14T22:05:42.093Z,91.30
2022-08-14T22:08:14.045Z,91.50
2022-08-14T22:10:46.482Z,91.30
2022-08-14T22:13:16.805Z,91.40
2022-08-14T22:15:50.018Z,90.80
2022-08-14T22:18:21.169Z,90.40
2022-08-14T22:20:56.551Z,91.10
2022-08-14T22:23:27.138Z,91.00
2022-08-14T22:25:57.001Z,90.50
2022-08-14T22:28:33.052Z,91.60
2022-08-14T22:31:10.332Z,90.40
2022-08-14T22:33:42.894Z,90.70
2022-08-14T22:36:34.194Z,90.60
2022-08-14T22:39:11.438Z,91.10
2022-08-14T22:41:42.800Z,92.10
2022-08-14T22:44:15.179Z,91.30
2022-08-14T22:46:45.308Z,92.10
2022-08-14T22:49:16.830Z,92.20
2022-08-14T22:52:31.719Z,90.60
2022-08-14T22:54:58.842Z,91.70
2022-08-14T22:57:37.825Z,91.10
2022-08-14T23:00:15.124Z,91.00
2022-08-14T23:02:47.038Z,91.80
2022-08-14T23:05:38.844Z,91.80
2022-08-14T23:08:57.600Z,91.40
2022-08-14T23:11:03.052Z,92.60
2022-08-14T23:13:32.658Z,92.70
2022-08-14T23:16:02.148Z,92.20
2022-08-14T23:18:32.269Z,91.10
2022-08-14T23:21:01.571Z,91.70
2022-08-14T23:23:31.876Z,91.30
2022-08-14T23:26:49.212Z,92.50
2022-08-14T23:28:57.192Z,92.30
2022-08-14T23:31:35.878Z,92.60
2022-08-14T23:34:06.592Z,91.30
2022-08-14T23:36:54.428Z,92.10
2022-08-14T23:39:30.540Z,92.70
2022-08-14T23:42:04.582Z,92.60
2022-08-14T23:44:37.881Z,91.70
2022-08-14T23:47:12.117Z,92.60
2022-08-14T23:50:03.409Z,92.40
2022-08-14T23:53:06.331Z,91.60
2022-08-14T23:55:35.214Z,92.90
2022-08-14T23:58:04.075Z,93.40
